Terminal Aerodrome Forecast
Issued by NWS

Home | Current Version | Previous Version | Text Only | Print | Product List | Glossary On
Versions: 1 2 3 4 5 6 7 8 9 10 11 12 13 14 15 16 17 18
000
FTUS45 KBOU 201525 AAB
TAFAPA
TAF AMD
KAPA 201525Z 2015/2112 10005KT P6SM VCSH SCT035 BKN045 OVC050
      TEMPO 2015/2017 5SM -SHSN BKN025 OVC040
     FM201900 VRB05KT P6SM VCSH SCT040 OVC070
     FM202100 35007KT P6SM FEW060 SCT080 BKN110
     FM210000 05005KT P6SM SCT090 SCT120
     FM210200 13007KT P6SM FEW120 SCT200
     FM210400 17006KT P6SM SCT200=

USA.gov is the U.S. government's official web portal to all federal, state and local government web resources and services.